createdAt,value
2023-07-10T00:00:34.106Z,100459.69
2023-07-10T00:03:36.061Z,100457.91
2023-07-10T00:06:37.841Z,100457.59
2023-07-10T00:09:39.951Z,100449.88
2023-07-10T00:12:45.013Z,100452.28
2023-07-10T00:15:46.747Z,100451.91
2023-07-10T00:18:49.414Z,100447.78
2023-07-10T00:21:51.214Z,100452.88
2023-07-10T00:24:53.348Z,100447.06
2023-07-10T00:27:58.528Z,100439.34
2023-07-10T00:31:00.484Z,100443.97
2023-07-10T00:34:02.912Z,100439.84
2023-07-10T00:37:06.356Z,100435.91
2023-07-10T00:40:20.118Z,100430.41
2023-07-10T00:43:36.331Z,100437.72
2023-07-10T00:46:40.388Z,100423.94
2023-07-10T00:49:46.553Z,100431.97
2023-07-10T00:52:50.001Z,100422.31
2023-07-10T00:55:54.541Z,100431.97
2023-07-10T00:58:58.080Z,100445.03
2023-07-10T01:02:20.525Z,100453.31
2023-07-10T01:05:25.059Z,100461.50
2023-07-10T01:08:27.777Z,100470.72
2023-07-10T01:11:30.365Z,100493.13
2023-07-10T01:14:36.827Z,100497.66
2023-07-10T01:17:41.167Z,100496.72
2023-07-10T01:20:47.717Z,100494.75
2023-07-10T01:23:52.086Z,100511.41
2023-07-10T01:26:56.855Z,100518.03
2023-07-10T01:30:08.017Z,100508.78
2023-07-10T01:33:16.268Z,100509.13
2023-07-10T01:36:29.583Z,100522.50
2023-07-10T01:39:38.044Z,100534.28
2023-07-10T01:42:39.786Z,100552.50
2023-07-10T01:45:43.857Z,100531.44
2023-07-10T01:48:48.888Z,100521.59
2023-07-10T01:51:52.027Z,100529.06
2023-07-10T01:54:57.216Z,100535.13
2023-07-10T01:57:59.415Z,100512.38
2023-07-10T02:01:01.757Z,100523.69
2023-07-10T02:04:04.645Z,100536.91
2023-07-10T02:07:08.911Z,100521.50
2023-07-10T02:10:12.457Z,100512.22
2023-07-10T02:13:14.531Z,100509.59
2023-07-10T02:16:17.132Z,100509.88
2023-07-10T02:19:20.470Z,100505.63
2023-07-10T02:22:22.336Z,100498.19
2023-07-10T02:25:25.599Z,100475.47
2023-07-10T02:28:28.669Z,100461.44
2023-07-10T02:31:31.650Z,100463.97
2023-07-10T02:34:33.916Z,100443.34
2023-07-10T02:37:36.132Z,100455.13
2023-07-10T02:40:39.277Z,100473.56
2023-07-10T02:43:50.416Z,100501.38
2023-07-10T02:46:53.674Z,100506.75
2023-07-10T02:49:56.219Z,100491.91
2023-07-10T02:52:58.759Z,100461.34
2023-07-10T02:56:03.931Z,100484.38
2023-07-10T02:59:07.945Z,100520.66
2023-07-10T03:02:09.762Z,100525.84
2023-07-10T03:05:12.217Z,100547.06
2023-07-10T03:08:14.140Z,100600.59
2023-07-10T03:11:18.095Z,100669.44
2023-07-10T03:14:20.003Z,100706.00
2023-07-10T03:17:21.817Z,100641.81
2023-07-10T03:20:23.932Z,100610.63
2023-07-10T03:23:26.746Z,100608.69
2023-07-10T03:26:29.927Z,100595.53
2023-07-10T03:29:31.919Z,100568.81
2023-07-10T03:32:33.916Z,100582.09
2023-07-10T03:35:35.845Z,100586.00
2023-07-10T03:38:37.627Z,100572.47
2023-07-10T03:41:40.761Z,100572.38
2023-07-10T03:44:42.616Z,100570.13
2023-07-10T03:47:44.787Z,100592.19
2023-07-10T03:50:47.684Z,100599.50
2023-07-10T03:53:50.066Z,100599.44
2023-07-10T03:56:53.139Z,100606.97
2023-07-10T03:59:55.001Z,100598.84
2023-07-10T04:02:57.177Z,100607.13
2023-07-10T04:05:59.696Z,100609.03
2023-07-10T04:09:02.053Z,100610.44
2023-07-10T04:12:06.296Z,100611.81
2023-07-10T04:15:09.586Z,100602.81
2023-07-10T04:18:12.496Z,100610.19
2023-07-10T04:21:16.894Z,100624.50
2023-07-10T04:24:18.741Z,100640.38
2023-07-10T04:27:21.839Z,100647.78
2023-07-10T04:30:23.770Z,100657.13
2023-07-10T04:33:26.348Z,100657.06
2023-07-10T04:36:29.650Z,100643.88
2023-07-10T04:39:33.591Z,100658.75
2023-07-10T04:42:37.682Z,100662.34
2023-07-10T04:45:39.931Z,100672.16
2023-07-10T04:48:46.968Z,100668.22
2023-07-10T04:51:49.023Z,100671.09
2023-07-10T04:54:51.736Z,100674.91
2023-07-10T04:57:55.490Z,100678.69
2023-07-10T05:01:00.715Z,100688.75
2023-07-10T05:04:04.837Z,100682.16
2023-07-10T05:07:06.799Z,100702.03
2023-07-10T05:10:09.262Z,100699.03
2023-07-10T05:13:12.376Z,100700.53
2023-07-10T05:16:15.289Z,100705.97
2023-07-10T05:19:18.315Z,100693.16
2023-07-10T05:22:20.292Z,100705.53
2023-07-10T05:25:22.596Z,100710.03
2023-07-10T05:28:27.204Z,100710.94
2023-07-10T05:31:29.003Z,100704.22
2023-07-10T05:34:33.924Z,100699.41
2023-07-10T05:37:35.728Z,100710.00
2023-07-10T05:40:41.828Z,100711.06
2023-07-10T05:43:47.047Z,100714.31
2023-07-10T05:46:48.742Z,100712.69
2023-07-10T05:49:52.761Z,100713.59
2023-07-10T05:52:54.457Z,100716.09
2023-07-10T05:55:58.084Z,100710.50
2023-07-10T05:59:02.070Z,100714.09
2023-07-10T06:02:04.321Z,100715.06
2023-07-10T06:05:07.106Z,100717.28
2023-07-10T06:08:10.046Z,100717.34
2023-07-10T06:11:13.083Z,100723.47
2023-07-10T06:14:16.246Z,100733.50
2023-07-10T06:17:18.078Z,100732.97
2023-07-10T06:20:19.744Z,100738.25
2023-07-10T06:23:22.158Z,100749.38
2023-07-10T06:26:23.908Z,100746.63
2023-07-10T06:29:27.030Z,100744.19
2023-07-10T06:32:29.139Z,100743.13
2023-07-10T06:35:31.002Z,100751.81
2023-07-10T06:38:33.168Z,100751.28
2023-07-10T06:41:34.977Z,100756.88
2023-07-10T06:44:38.173Z,100762.41
2023-07-10T06:47:42.537Z,100760.91
2023-07-10T06:50:48.117Z,100764.69
2023-07-10T06:53:49.989Z,100764.00
2023-07-10T06:56:52.316Z,100756.41
2023-07-10T06:59:55.584Z,100760.94
2023-07-10T07:02:57.688Z,100757.41
2023-07-10T07:06:00.593Z,100748.72
2023-07-10T07:09:04.973Z,100759.16
2023-07-10T07:12:08.680Z,100762.53
2023-07-10T07:15:13.812Z,100764.22
2023-07-10T07:18:16.269Z,100751.34
2023-07-10T07:21:18.080Z,100758.81
2023-07-10T07:24:20.034Z,100755.53
2023-07-10T07:27:22.233Z,100753.81
2023-07-10T07:30:25.926Z,100753.88
2023-07-10T07:33:28.431Z,100756.38
2023-07-10T07:36:33.317Z,100758.72
2023-07-10T07:39:35.105Z,100754.47
2023-07-10T07:42:36.983Z,100754.63
2023-07-10T07:45:40.474Z,100753.88
2023-07-10T07:48:42.439Z,100755.97
2023-07-10T07:51:44.666Z,100753.19
2023-07-10T07:54:47.032Z,100765.78
2023-07-10T07:57:48.759Z,100761.34
2023-07-10T08:00:51.910Z,100768.25
2023-07-10T08:03:54.231Z,100769.53
2023-07-10T08:06:57.985Z,100775.72
2023-07-10T08:10:01.869Z,100780.88
2023-07-10T08:13:05.337Z,100787.69
2023-07-10T08:16:08.632Z,100787.78
2023-07-10T08:19:10.920Z,100794.59
2023-07-10T08:22:12.686Z,100779.28
2023-07-10T08:25:14.648Z,100782.88
2023-07-10T08:28:16.363Z,100788.06
2023-07-10T08:31:19.962Z,100793.84
2023-07-10T08:34:22.664Z,100790.88
2023-07-10T08:37:24.604Z,100792.13
2023-07-10T08:40:31.791Z,100797.72
2023-07-10T08:43:37.139Z,100801.53
2023-07-10T08:46:40.476Z,100801.63
2023-07-10T08:49:54.847Z,100792.41
2023-07-10T08:53:07.047Z,100785.22
2023-07-10T08:56:22.885Z,100781.19
2023-07-10T08:59:47.759Z,100782.44
2023-07-10T09:02:56.753Z,100782.75
2023-07-10T09:05:59.147Z,100784.28
2023-07-10T09:09:02.322Z,100792.41
2023-07-10T09:12:11.254Z,100787.81
2023-07-10T09:15:16.171Z,100779.06
2023-07-10T09:18:24.765Z,100784.50
2023-07-10T09:21:31.176Z,100786.09
2023-07-10T09:24:33.329Z,100786.84
2023-07-10T09:27:35.631Z,100783.78
2023-07-10T09:30:51.328Z,100783.28
2023-07-10T09:34:01.131Z,100790.72
2023-07-10T09:37:06.508Z,100790.69
2023-07-10T09:40:21.490Z,100783.34
2023-07-10T09:43:25.330Z,100787.34
2023-07-10T09:46:29.569Z,100779.00
2023-07-10T09:49:57.959Z,100781.97
2023-07-10T09:52:59.798Z,100774.38
2023-07-10T09:56:01.748Z,100781.94
2023-07-10T09:59:19.145Z,100772.28
2023-07-10T10:02:23.922Z,100774.03
2023-07-10T10:05:29.412Z,100777.84
2023-07-10T10:08:33.748Z,100777.81
2023-07-10T10:11:44.294Z,100758.16
2023-07-10T10:14:52.658Z,100758.19
2023-07-10T10:17:58.746Z,100746.38
2023-07-10T10:21:03.694Z,100753.41
2023-07-10T10:24:11.124Z,100745.91
2023-07-10T10:27:23.937Z,100740.28
2023-07-10T10:30:36.551Z,100733.50
2023-07-10T10:33:48.428Z,100731.78
2023-07-10T10:37:09.555Z,100734.59
2023-07-10T10:40:23.501Z,100735.06
2023-07-10T10:43:44.500Z,100729.47
2023-07-10T10:46:59.342Z,100725.03
2023-07-10T10:50:15.263Z,100730.38
2023-07-10T10:53:36.014Z,100728.44
2023-07-10T10:56:42.606Z,100719.91
2023-07-10T10:59:52.962Z,100727.63
2023-07-10T11:03:09.801Z,100725.53
2023-07-10T11:06:32.557Z,100725.59
2023-07-10T11:09:39.790Z,100717.50
2023-07-10T11:12:42.470Z,100713.00
2023-07-10T11:15:44.403Z,100710.13
2023-07-10T11:18:47.738Z,100708.34
2023-07-10T11:21:53.481Z,100709.91
2023-07-10T11:24:57.297Z,100700.56
2023-07-10T11:28:01.797Z,100688.69
2023-07-10T11:31:38.294Z,100677.84
2023-07-10T11:35:19.840Z,100667.28
2023-07-10T11:38:25.787Z,100666.53
2023-07-10T11:41:32.813Z,100663.84
2023-07-10T11:44:40.798Z,100669.50
2023-07-10T11:47:46.737Z,100667.75
2023-07-10T11:50:50.507Z,100673.00
2023-07-10T11:54:03.252Z,100664.78
2023-07-10T11:57:27.817Z,100654.50
2023-07-10T12:00:31.663Z,100654.56
2023-07-10T12:03:36.488Z,100658.41
2023-07-10T12:06:44.314Z,100648.09
2023-07-10T12:09:50.419Z,100669.09
2023-07-10T12:12:54.905Z,100660.47
2023-07-10T12:16:00.137Z,100655.53
2023-07-10T12:19:17.573Z,100666.47
2023-07-10T12:22:21.871Z,100669.50
2023-07-10T12:25:23.815Z,100655.69
2023-07-10T12:28:29.718Z,100654.28
2023-07-10T12:31:31.626Z,100643.56
2023-07-10T12:34:33.934Z,100642.91
2023-07-10T12:37:36.887Z,100637.59
2023-07-10T12:40:40.592Z,100636.94
2023-07-10T12:43:49.470Z,100632.84
2023-07-10T12:46:56.266Z,100630.59
2023-07-10T12:50:00.531Z,100623.00
2023-07-10T12:53:06.131Z,100629.91
2023-07-10T12:56:16.505Z,100630.50
2023-07-10T12:59:25.091Z,100638.59
2023-07-10T13:02:28.868Z,100639.97
2023-07-10T13:05:32.729Z,100639.19
2023-07-10T13:08:36.649Z,100644.72
2023-07-10T13:11:45.023Z,100641.94
2023-07-10T13:14:51.799Z,100644.91
2023-07-10T13:17:56.631Z,100646.81
2023-07-10T13:20:58.486Z,100651.94
2023-07-10T13:24:00.335Z,100657.47
2023-07-10T13:27:02.187Z,100636.63
2023-07-10T13:30:16.275Z,100642.63
2023-07-10T13:33:19.837Z,100640.22
2023-07-10T13:36:27.832Z,100636.66
2023-07-10T13:39:29.849Z,100624.16
2023-07-10T13:42:32.200Z,100639.69
2023-07-10T13:45:36.001Z,100648.00
2023-07-10T13:48:37.725Z,100630.84
2023-07-10T13:51:39.851Z,100636.13
2023-07-10T13:54:41.997Z,100627.16
2023-07-10T13:57:44.560Z,100631.81
2023-07-10T14:00:50.114Z,100616.13
2023-07-10T14:03:54.907Z,100633.44
2023-07-10T14:06:57.645Z,100631.19
2023-07-10T14:10:00.841Z,100613.47
2023-07-10T14:13:05.875Z,100621.81
2023-07-10T14:16:26.942Z,100629.16
2023-07-10T14:19:29.255Z,100626.06
2023-07-10T14:22:33.536Z,100631.03
2023-07-10T14:25:35.420Z,100624.31
2023-07-10T14:28:37.207Z,100619.25
2023-07-10T14:31:40.734Z,100630.50
2023-07-10T14:34:43.135Z,100641.97
2023-07-10T14:37:45.246Z,100632.72
2023-07-10T14:40:48.002Z,100616.59
2023-07-10T14:43:51.014Z,100608.41
2023-07-10T14:47:06.691Z,100612.19
2023-07-10T14:50:13.513Z,100618.25
2023-07-10T14:53:19.274Z,100618.63
2023-07-10T14:56:21.108Z,100616.59
2023-07-10T14:59:22.940Z,100605.88
2023-07-10T15:02:27.478Z,100602.28
2023-07-10T15:05:29.657Z,100605.19
2023-07-10T15:08:40.769Z,100597.84
2023-07-10T15:11:43.023Z,100608.66
2023-07-10T15:14:49.365Z,100606.63
2023-07-10T15:17:54.998Z,100586.22
2023-07-10T15:20:57.206Z,100598.31
2023-07-10T15:23:59.053Z,100605.78
2023-07-10T15:27:06.521Z,100598.38
2023-07-10T15:30:09.826Z,100603.22
2023-07-10T15:33:16.165Z,100594.03
2023-07-10T15:36:20.441Z,100590.44
2023-07-10T15:39:23.170Z,100583.22
2023-07-10T15:42:25.765Z,100582.81
2023-07-10T15:45:32.980Z,100578.50
2023-07-10T15:48:43.954Z,100582.97
2023-07-10T15:51:46.635Z,100570.16
2023-07-10T15:54:52.411Z,100573.22
2023-07-10T15:57:55.856Z,100574.03
2023-07-10T16:00:58.764Z,100572.19
2023-07-10T16:04:05.992Z,100570.06
2023-07-10T16:07:08.358Z,100566.56
2023-07-10T16:10:14.188Z,100553.78
2023-07-10T16:13:21.587Z,100563.63
2023-07-10T16:16:25.264Z,100564.78
2023-07-10T16:19:30.216Z,100561.16
2023-07-10T16:22:32.581Z,100560.81
2023-07-10T16:25:37.880Z,100564.56
2023-07-10T16:28:40.047Z,100551.88
2023-07-10T16:31:42.581Z,100564.50
2023-07-10T16:34:45.952Z,100560.88
2023-07-10T16:37:51.187Z,100567.31
2023-07-10T16:40:55.982Z,100566.25
2023-07-10T16:43:58.029Z,100565.25
2023-07-10T16:47:04.626Z,100574.97
2023-07-10T16:50:39.763Z,100564.84
2023-07-10T16:53:42.976Z,100556.84
2023-07-10T16:56:44.778Z,100559.63
2023-07-10T16:59:46.646Z,100556.00
2023-07-10T17:02:55.462Z,100553.88
2023-07-10T17:06:00.430Z,100563.06
2023-07-10T17:09:09.036Z,100560.16
2023-07-10T17:12:11.505Z,100558.72
2023-07-10T17:15:16.690Z,100559.13
2023-07-10T17:18:20.239Z,100562.69
2023-07-10T17:21:27.828Z,100555.28
2023-07-10T17:24:34.696Z,100556.75
2023-07-10T17:27:36.706Z,100552.25
2023-07-10T17:30:38.885Z,100556.88
2023-07-10T17:33:42.866Z,100552.28
